createdAt,value
2019-01-19T09:36:55.939Z,4524.00
2019-01-19T09:37:57.579Z,4540.00
2019-01-19T09:38:57.574Z,4552.00
2019-01-19T09:39:57.687Z,4564.00
2019-01-19T09:40:57.631Z,4580.00
2019-01-19T09:41:57.561Z,4604.00
2019-01-19T09:42:57.564Z,4624.00
2019-01-19T09:43:57.561Z,4640.00
2019-01-19T09:44:57.723Z,4660.00
2019-01-19T09:45:57.568Z,4676.00
2019-01-19T09:46:57.560Z,4696.00
2019-01-19T09:47:57.555Z,4708.00
2019-01-19T09:48:57.661Z,4720.00
2019-01-19T09:49:57.568Z,4736.00
2019-01-19T09:50:58.613Z,4752.00
2019-01-19T09:51:57.571Z,4764.00
2019-01-19T09:52:57.554Z,4780.00
2019-01-19T09:53:56.572Z,4796.00
2019-01-19T09:54:57.579Z,4812.00
2019-01-19T09:55:57.058Z,4832.00
2019-01-19T09:56:57.548Z,4852.00
2019-01-19T09:57:57.548Z,4868.00
2019-01-19T09:58:57.547Z,4888.00
2019-01-19T09:59:55.670Z,4904.00
2019-01-19T10:00:57.577Z,4916.00
2019-01-19T10:01:57.548Z,4932.00
2019-01-19T10:02:57.548Z,4948.00
2019-01-19T10:03:57.545Z,4956.00
2019-01-19T10:04:57.569Z,4968.00
2019-01-19T10:05:57.050Z,4980.00
2019-01-19T10:06:57.077Z,4992.00
2019-01-19T10:07:57.048Z,5004.00
2019-01-19T10:08:57.048Z,5016.00
2019-01-19T10:09:57.048Z,5032.00
2019-01-19T10:10:57.064Z,5056.00
2019-01-19T10:11:57.046Z,5072.00
2019-01-19T10:12:57.103Z,5088.00
2019-01-19T10:13:57.038Z,5112.00
2019-01-19T10:14:57.051Z,5132.00
2019-01-19T10:15:57.050Z,5152.00
2019-01-19T10:16:57.043Z,5172.00
2019-01-19T10:17:57.052Z,5196.00
2019-01-19T10:18:57.098Z,5220.00
2019-01-19T10:19:57.048Z,5240.00
2019-01-19T10:20:57.058Z,5268.00
2019-01-19T10:21:57.051Z,5292.00
2019-01-19T10:22:57.043Z,5316.00
2019-01-19T10:23:57.066Z,5332.00
2019-01-19T10:24:57.098Z,5356.00
2019-01-19T10:25:57.097Z,5372.00
2019-01-19T10:26:57.051Z,5396.00
2019-01-19T10:27:57.055Z,5424.00
2019-01-19T10:28:57.053Z,5448.00
2019-01-19T10:29:57.032Z,5476.00
2019-01-19T10:30:57.074Z,5496.00
2019-01-19T10:31:57.056Z,5528.00
2019-01-19T10:32:57.067Z,5556.00
2019-01-19T10:33:57.035Z,5592.00
2019-01-19T10:34:57.048Z,5624.00
2019-01-19T10:35:57.057Z,5664.00
2019-01-19T10:36:57.068Z,5704.00
2019-01-19T10:37:57.112Z,5748.00
2019-01-19T10:38:57.052Z,5796.00
2019-01-19T10:39:57.044Z,5840.00
2019-01-19T10:40:57.115Z,5884.00
2019-01-19T10:41:57.044Z,5932.00
2019-01-19T10:42:56.253Z,5972.00
2019-01-19T10:43:57.042Z,6012.00
2019-01-19T10:44:57.042Z,6052.00
2019-01-19T10:45:57.050Z,6080.00
2019-01-19T10:46:57.042Z,6116.00
2019-01-19T10:47:57.062Z,6144.00
2019-01-19T10:48:57.093Z,6180.00
2019-01-19T10:49:57.044Z,6204.00
2019-01-19T10:50:56.038Z,6228.00
2019-01-19T10:51:59.514Z,6256.00
2019-01-19T10:52:57.045Z,6276.00
2019-01-19T10:53:57.055Z,6284.00
2019-01-19T10:54:56.076Z,6300.00
2019-01-19T10:55:57.547Z,6312.00
2019-01-19T10:56:56.539Z,6328.00
2019-01-19T10:57:56.529Z,6340.00
2019-01-19T10:58:56.544Z,6352.00
2019-01-19T10:59:56.588Z,6360.00
2019-01-19T11:00:56.535Z,6360.00
2019-01-19T11:01:56.563Z,6356.00
2019-01-19T11:02:56.544Z,6340.00
2019-01-19T11:03:56.558Z,6336.00
2019-01-19T11:04:56.578Z,6316.00
2019-01-19T11:05:56.571Z,6300.00
2019-01-19T11:06:56.551Z,6280.00
2019-01-19T11:08:03.215Z,6256.00
2019-01-19T11:08:57.580Z,6236.00
2019-01-19T11:09:56.566Z,6204.00
2019-01-19T11:10:56.562Z,6196.00
2019-01-19T11:11:56.584Z,6212.00
2019-01-19T11:12:56.535Z,6212.00
2019-01-19T11:13:56.549Z,6196.00
2019-01-19T11:14:56.545Z,6188.00
2019-01-19T11:15:56.538Z,6156.00
2019-01-19T11:16:56.312Z,6140.00
2019-01-19T11:17:56.545Z,6132.00
2019-01-19T11:18:56.615Z,6116.00
2019-01-19T11:19:56.554Z,6088.00
2019-01-19T11:20:55.568Z,6068.00
2019-01-19T11:21:56.533Z,6040.00
2019-01-19T11:22:54.791Z,6024.00
2019-01-19T11:23:56.543Z,6004.00
2019-01-19T11:24:56.567Z,5992.00
2019-01-19T11:25:56.543Z,5972.00
2019-01-19T11:26:56.556Z,5960.00
2019-01-19T11:27:56.557Z,5960.00
2019-01-19T11:28:54.762Z,5964.00
2019-01-19T11:29:56.555Z,6004.00
2019-01-19T11:30:57.535Z,6080.00
2019-01-19T11:31:56.567Z,6104.00
2019-01-19T11:32:56.551Z,6116.00
2019-01-19T11:33:56.557Z,6164.00
2019-01-19T11:34:56.627Z,6216.00
2019-01-19T11:35:56.564Z,6216.00
2019-01-19T11:36:56.535Z,6212.00
2019-01-19T11:37:56.558Z,6200.00
2019-01-19T11:38:56.564Z,6180.00
2019-01-19T11:39:56.526Z,6164.00
2019-01-19T11:40:56.544Z,6160.00
2019-01-19T11:41:56.574Z,6164.00
2019-01-19T11:42:56.526Z,6148.00
2019-01-19T11:43:56.564Z,6156.00
2019-01-19T11:44:56.252Z,6164.00
2019-01-19T11:45:56.038Z,6156.00
2019-01-19T11:46:56.038Z,6156.00
2019-01-19T11:47:56.158Z,6140.00
2019-01-19T11:48:56.051Z,6128.00
2019-01-19T11:49:56.042Z,6116.00
2019-01-19T11:50:56.057Z,6092.00
2019-01-19T11:51:56.073Z,6072.00
2019-01-19T11:52:56.038Z,6036.00
2019-01-19T11:53:56.061Z,6008.00
2019-01-19T11:54:56.036Z,5980.00
2019-01-19T11:55:56.050Z,5936.00
2019-01-19T11:56:56.037Z,5904.00
2019-01-19T11:57:56.080Z,5872.00
2019-01-19T11:58:56.037Z,5844.00
2019-01-19T11:59:56.034Z,5820.00
2019-01-19T12:00:56.024Z,5784.00
2019-01-19T12:01:56.090Z,5752.00
2019-01-19T12:02:56.035Z,5732.00
2019-01-19T12:03:56.211Z,5704.00
2019-01-19T12:04:56.039Z,5680.00
2019-01-19T12:05:56.042Z,5648.00
2019-01-19T12:06:56.060Z,5608.00
2019-01-19T12:07:56.059Z,5584.00
2019-01-19T12:08:56.044Z,5560.00
2019-01-19T12:09:58.722Z,5536.00
2019-01-19T12:10:56.053Z,5524.00
2019-01-19T12:11:58.433Z,5508.00
2019-01-19T12:12:57.457Z,5488.00
2019-01-19T12:13:56.042Z,5464.00
2019-01-19T12:14:56.036Z,5432.00
2019-01-19T12:15:56.044Z,5412.00
2019-01-19T12:16:56.033Z,5416.00
2019-01-19T12:17:56.059Z,5412.00
2019-01-19T12:18:56.034Z,5404.00
2019-01-19T12:19:56.034Z,5396.00
2019-01-19T12:20:56.092Z,5400.00
2019-01-19T12:21:56.098Z,5396.00
2019-01-19T12:22:56.099Z,5384.00
2019-01-19T12:23:56.058Z,5392.00
2019-01-19T12:24:56.039Z,5396.00
2019-01-19T12:25:56.037Z,5376.00
2019-01-19T12:26:56.046Z,5348.00
2019-01-19T12:27:54.172Z,5316.00
2019-01-19T12:28:56.063Z,5300.00
2019-01-19T12:29:56.053Z,5260.00
2019-01-19T12:30:56.052Z,5248.00
2019-01-19T12:31:55.046Z,5232.00
2019-01-19T12:32:55.556Z,5208.00
2019-01-19T12:33:54.123Z,5192.00
2019-01-19T12:34:55.540Z,5176.00
2019-01-19T12:35:55.548Z,5140.00
2019-01-19T12:36:55.601Z,5096.00
2019-01-19T12:37:55.594Z,5084.00
2019-01-19T12:38:55.541Z,5076.00
2019-01-19T12:39:55.560Z,5072.00
2019-01-19T12:40:55.543Z,5072.00
2019-01-19T12:41:55.656Z,5072.00
2019-01-19T12:42:55.545Z,5064.00
2019-01-19T12:43:57.297Z,5056.00
2019-01-19T12:44:55.657Z,5052.00
2019-01-19T12:45:56.641Z,5040.00
2019-01-19T12:46:56.971Z,5040.00
2019-01-19T12:47:55.540Z,5056.00
2019-01-19T12:48:55.645Z,5064.00
2019-01-19T12:49:55.631Z,5068.00
2019-01-19T12:50:55.561Z,5064.00
2019-01-19T12:51:55.548Z,5056.00
2019-01-19T12:52:55.554Z,5048.00
2019-01-19T12:53:55.560Z,5040.00
2019-01-19T12:54:55.556Z,5036.00
2019-01-19T12:55:55.565Z,5040.00
2019-01-19T12:57:02.521Z,5032.00
2019-01-19T12:57:53.813Z,5028.00
2019-01-19T12:58:54.034Z,5032.00
2019-01-19T12:59:53.863Z,5016.00
2019-01-19T13:00:53.815Z,5008.00
2019-01-19T13:01:55.821Z,5004.00
2019-01-19T13:02:53.751Z,5016.00
2019-01-19T13:03:54.872Z,5032.00
2019-01-19T13:05:01.759Z,5036.00
2019-01-19T13:05:53.719Z,5032.00
2019-01-19T13:06:54.720Z,5028.00
2019-01-19T13:07:53.693Z,5036.00
2019-01-19T13:08:55.772Z,5052.00
2019-01-19T13:09:53.726Z,5048.00
2019-01-19T13:10:53.721Z,5048.00
2019-01-19T13:11:57.177Z,5068.00
2019-01-19T13:12:53.824Z,5088.00
2019-01-19T13:13:53.636Z,5084.00
2019-01-19T13:15:00.605Z,5068.00
2019-01-19T13:15:53.611Z,5048.00
2019-01-19T13:16:54.771Z,5036.00
2019-01-19T13:17:53.597Z,5036.00
2019-01-19T13:18:54.684Z,5044.00
2019-01-19T13:19:53.582Z,5036.00
2019-01-19T13:20:55.655Z,5032.00
2019-01-19T13:21:54.680Z,5016.00
2019-01-19T13:23:01.182Z,5016.00
2019-01-19T13:23:53.532Z,4976.00
2019-01-19T13:24:53.606Z,4952.00
2019-01-19T13:25:53.517Z,4948.00
2019-01-19T13:26:53.622Z,4956.00
2019-01-19T13:27:53.503Z,4952.00
2019-01-19T13:29:01.110Z,4936.00
2019-01-19T13:29:53.468Z,4932.00
2019-01-19T13:30:54.471Z,4928.00
2019-01-19T13:31:53.620Z,4924.00
2019-01-19T13:32:55.503Z,4900.00
2019-01-19T13:33:54.483Z,4824.00
2019-01-19T13:34:53.411Z,4780.00
2019-01-19T13:35:55.313Z,4784.00
2019-01-19T13:36:53.390Z,4796.00
2019-01-19T13:38:57.666Z,4764.00
2019-01-19T13:39:53.366Z,4744.00
2019-01-19T13:40:53.355Z,4720.00
2019-01-19T13:41:53.404Z,4700.00
2019-01-19T13:42:53.395Z,4672.00
2019-01-19T13:43:54.347Z,4632.00
2019-01-19T13:44:53.310Z,4572.00
2019-01-19T13:45:53.313Z,4528.00
2019-01-19T13:46:53.288Z,4476.00
2019-01-19T13:48:53.265Z,4480.00
2019-01-19T13:49:54.385Z,4460.00
2019-01-19T13:50:53.249Z,4440.00
2019-01-19T13:52:01.161Z,4416.00
2019-01-19T13:52:55.818Z,4404.00
2019-01-19T13:54:00.140Z,4396.00
2019-01-19T13:54:53.199Z,4380.00
2019-01-19T13:55:55.252Z,4360.00
2019-01-19T13:56:53.185Z,4336.00
2019-01-19T13:57:53.233Z,4308.00
2019-01-19T13:58:53.255Z,4280.00
2019-01-19T13:59:54.241Z,4272.00
2019-01-19T14:00:53.146Z,4252.00
2019-01-19T14:01:55.182Z,4240.00
2019-01-19T14:02:56.700Z,4228.00
2019-01-19T14:03:53.253Z,4196.00
2019-01-19T14:04:53.101Z,4156.00
2019-01-19T14:06:15.276Z,4128.00
2019-01-19T14:06:53.145Z,4088.00
2019-01-19T14:07:55.111Z,4044.00
2019-01-19T14:08:53.072Z,4004.00
2019-01-19T14:09:53.064Z,3964.00
2019-01-19T14:10:53.040Z,3920.00
2019-01-19T14:11:56.278Z,3880.00
2019-01-19T14:12:53.031Z,3844.00
2019-01-19T14:13:55.049Z,3804.00
2019-01-19T14:14:53.009Z,3764.00
2019-01-19T14:15:53.077Z,3728.00
2019-01-19T14:16:52.974Z,3684.00
2019-01-19T14:17:53.018Z,3640.00
2019-01-19T14:18:55.046Z,3600.00
2019-01-19T14:19:54.979Z,3560.00
2019-01-19T14:20:52.930Z,3524.00
2019-01-19T14:21:53.019Z,3492.00
2019-01-19T14:22:59.611Z,3460.00
2019-01-19T14:23:54.067Z,3432.00
2019-01-19T14:25:09.660Z,3404.00
2019-01-19T14:25:52.895Z,3372.00
2019-01-19T14:26:53.903Z,3332.00
2019-01-19T14:28:07.628Z,3296.00
2019-01-19T14:28:52.911Z,3264.00
2019-01-19T14:30:01.700Z,3232.00
2019-01-19T14:30:52.836Z,3200.00
2019-01-19T14:31:57.213Z,3168.00
2019-01-19T14:32:52.809Z,3140.00
2019-01-19T14:33:52.954Z,3104.00
2019-01-19T14:34:54.899Z,3060.00
2019-01-19T14:35:52.778Z,3024.00
2019-01-19T14:36:53.870Z,2988.00
2019-01-19T14:37:52.767Z,2956.00
2019-01-19T14:39:26.131Z,2920.00
2019-01-19T14:39:52.748Z,2884.00
2019-01-19T15:42:26.594Z,416.00
2019-01-19T15:43:26.519Z,388.00
2019-01-19T15:44:26.507Z,364.00
2019-01-19T15:45:27.574Z,344.00
2019-01-19T15:46:26.490Z,320.00
2019-01-19T15:47:27.694Z,300.00
2019-01-19T15:48:26.489Z,284.00
2019-01-19T15:49:26.475Z,264.00
2019-01-19T15:50:26.443Z,244.00
2019-01-19T15:51:27.652Z,228.00
2019-01-19T15:52:26.421Z,212.00
2019-01-19T15:53:26.510Z,196.00
2019-01-19T15:54:26.417Z,176.00
2019-01-19T15:55:26.449Z,160.00
2019-01-19T15:56:26.381Z,148.00
2019-01-19T15:57:26.538Z,132.00
2019-01-19T15:58:26.422Z,120.00
2019-01-19T15:59:26.452Z,108.00
2019-01-19T16:00:27.354Z,96.00
2019-01-19T16:01:26.413Z,88.00
2019-01-19T16:02:26.325Z,80.00
2019-01-19T16:03:26.362Z,72.00
2019-01-19T16:04:26.317Z,64.00
2019-01-19T16:05:27.410Z,56.00
2019-01-19T16:06:26.357Z,48.00
2019-01-19T16:07:26.282Z,40.00
2019-01-19T16:08:27.308Z,36.00
2019-01-19T16:09:26.249Z,32.00
2019-01-19T16:10:26.302Z,28.00
2019-01-19T16:11:26.391Z,24.00
2019-01-19T16:12:27.236Z,24.00
2019-01-19T16:13:26.207Z,20.00
2019-01-19T16:14:27.263Z,16.00
2019-01-19T16:15:26.248Z,12.00
2019-01-19T16:16:26.238Z,12.00
2019-01-19T16:17:26.310Z,12.00
2019-01-19T16:18:26.166Z,12.00
2019-01-19T16:19:26.151Z,4.00
2019-01-19T16:20:26.156Z,8.00
2019-01-19T16:21:26.127Z,8.00
2019-01-19T16:22:27.415Z,4.00
2019-01-19T16:23:26.110Z,4.00
2019-01-19T16:24:26.096Z,4.00
2019-01-19T16:25:26.087Z,4.00
2019-01-19T16:26:27.222Z,0.00
2019-01-19T16:27:26.065Z,4.00
2019-01-19T16:28:26.105Z,4.00
2019-01-19T16:29:26.048Z,4.00
2019-01-19T16:30:26.100Z,0.00
2019-01-19T16:31:27.641Z,0.00
2019-01-19T16:32:26.020Z,0.00
2019-01-19T16:33:26.145Z,0.00
2019-01-19T16:34:26.000Z,0.00
2019-01-19T16:35:26.154Z,0.00
2019-01-19T16:36:26.143Z,0.00
2019-01-19T16:37:26.066Z,0.00
2019-01-19T16:38:25.959Z,0.00
2019-01-19T16:39:27.006Z,0.00
2019-01-19T16:40:25.971Z,0.00
2019-01-19T16:41:26.091Z,0.00
2019-01-19T16:42:27.005Z,0.00
2019-01-19T16:43:26.000Z,0.00
2019-01-19T16:44:25.888Z,0.00
2019-01-19T16:45:25.915Z,0.00
2019-01-19T16:46:25.929Z,0.00
2019-01-19T16:47:25.867Z,0.00
2019-01-19T16:48:25.854Z,0.00
2019-01-19T16:49:25.938Z,0.00
2019-01-19T16:50:26.016Z,0.00
2019-01-19T16:51:25.847Z,0.00
2019-01-19T16:52:25.814Z,0.00
2019-01-19T16:53:25.859Z,0.00
2019-01-19T16:54:25.802Z,0.00
2019-01-19T16:55:25.873Z,0.00
2019-01-19T16:56:25.777Z,0.00
2019-01-19T16:57:25.795Z,0.00
2019-01-19T16:58:25.859Z,0.00
2019-01-19T16:59:25.748Z,0.00
2019-01-19T17:00:25.792Z,0.00
2019-01-19T17:01:25.807Z,0.00
2019-01-19T17:02:25.880Z,0.00
2019-01-19T17:03:25.720Z,0.00
2019-01-19T17:04:25.697Z,0.00
2019-01-19T17:05:25.690Z,0.00
2019-01-19T17:06:25.726Z,0.00
2019-01-19T17:07:25.744Z,0.00
2019-01-19T17:08:25.660Z,0.00
2019-01-19T17:09:32.621Z,0.00
2019-01-19T17:10:26.650Z,0.00
2019-01-19T17:11:25.735Z,0.00
2019-01-19T17:12:25.611Z,0.00
2019-01-19T17:13:25.680Z,0.00
2019-01-19T17:14:25.593Z,0.00
2019-01-19T17:15:25.692Z,0.00
2019-01-19T17:16:25.667Z,0.00
2019-01-19T17:17:25.561Z,0.00
2019-01-19T17:18:26.469Z,0.00
2019-01-19T17:19:25.613Z,0.00
2019-01-19T17:20:25.577Z,0.00
2019-01-19T17:21:25.625Z,0.00
2019-01-19T17:22:25.531Z,0.00
2019-01-19T17:23:25.615Z,0.00
2019-01-19T17:24:25.558Z,0.00
2019-01-19T17:25:25.495Z,0.00
2019-01-19T17:26:25.577Z,0.00
2019-01-19T17:27:25.474Z,0.00
2019-01-19T17:28:25.467Z,0.00
2019-01-19T17:29:25.453Z,0.00
2019-01-19T17:30:25.580Z,0.00
2019-01-19T17:31:25.433Z,0.00
2019-01-19T17:32:25.495Z,0.00
2019-01-19T17:33:25.403Z,0.00
2019-01-19T17:34:25.515Z,0.00
2019-01-19T17:35:25.390Z,0.00
2019-01-19T17:36:25.413Z,0.00
2019-01-19T17:37:25.364Z,0.00
2019-01-19T17:38:25.426Z,0.00
2019-01-19T17:39:25.499Z,0.00
2019-01-19T17:40:25.345Z,0.00
2019-01-19T17:41:25.314Z,0.00
2019-01-19T17:42:25.455Z,0.00
2019-01-19T17:43:25.954Z,0.00
2019-01-19T17:44:25.377Z,0.00
2019-01-19T17:45:25.291Z,0.00
2019-01-19T17:46:25.451Z,0.00
2019-01-19T17:47:25.267Z,0.00
2019-01-19T17:48:25.290Z,0.00
2019-01-19T17:49:25.300Z,0.00
2019-01-19T17:50:25.304Z,0.00
2019-01-19T17:51:25.224Z,0.00
2019-01-19T17:52:25.277Z,0.00
2019-01-19T17:53:25.213Z,0.00
2019-01-19T17:54:25.272Z,0.00
2019-01-19T17:55:25.233Z,0.00
2019-01-19T17:56:25.164Z,0.00
2019-01-19T17:57:25.157Z,0.00
2019-01-19T17:58:25.220Z,0.00
2019-01-19T17:59:25.255Z,0.00
2019-01-19T18:00:25.123Z,0.00
2019-01-19T18:01:25.509Z,0.00
2019-01-19T18:02:25.120Z,0.00
2019-01-19T18:03:25.262Z,0.00
2019-01-19T18:04:25.103Z,0.00
2019-01-19T18:05:25.192Z,0.00
2019-01-19T18:06:25.083Z,0.00
2019-01-19T18:07:25.102Z,0.00
2019-01-19T18:08:25.099Z,0.00
2019-01-19T18:09:25.214Z,0.00
2019-01-19T18:10:25.123Z,0.00
2019-01-19T18:11:25.047Z,0.00
2019-01-19T18:12:25.032Z,0.00
2019-01-19T18:13:24.996Z,0.00
2019-01-19T18:14:25.146Z,0.00
2019-01-19T18:15:24.991Z,0.00
2019-01-19T18:16:25.162Z,0.00
2019-01-19T18:17:24.954Z,0.00
2019-01-19T18:18:24.986Z,0.00
2019-01-19T18:19:24.932Z,0.00
2019-01-19T18:20:25.008Z,0.00
2019-01-19T18:21:25.055Z,0.00
2019-01-19T18:22:25.118Z,0.00
2019-01-19T18:23:25.043Z,0.00
2019-01-19T18:24:26.059Z,0.00
2019-01-19T18:25:24.887Z,0.00
2019-01-19T18:26:24.949Z,0.00
2019-01-19T18:27:24.853Z,0.00
2019-01-19T18:28:24.943Z,0.00
2019-01-19T18:29:24.891Z,0.00
2019-01-19T18:30:25.060Z,0.00
2019-01-19T18:31:24.866Z,0.00
2019-01-19T18:32:24.820Z,0.00
2019-01-19T18:33:24.859Z,0.00
2019-01-19T18:34:24.937Z,0.00
2019-01-19T18:35:24.873Z,0.00
2019-01-19T18:36:24.782Z,0.00
2019-01-19T18:37:24.754Z,0.00
2019-01-19T18:38:24.747Z,0.00
2019-01-19T18:39:24.912Z,0.00
2019-01-19T18:40:24.969Z,0.00
2019-01-19T18:41:24.805Z,0.00
2019-01-19T18:42:24.697Z,0.00
2019-01-19T18:43:24.709Z,0.00
2019-01-19T18:44:24.834Z,0.00
2019-01-19T18:45:24.698Z,0.00
2019-01-19T18:46:24.742Z,0.00
2019-01-19T18:47:24.832Z,0.00
2019-01-19T18:48:24.861Z,0.00
2019-01-19T18:49:24.658Z,0.00
2019-01-19T18:50:24.791Z,0.00
2019-01-19T18:51:24.666Z,0.00
2019-01-19T18:52:24.681Z,0.00
2019-01-19T18:53:24.738Z,0.00
2019-01-19T18:54:24.591Z,0.00
2019-01-19T18:55:24.783Z,0.00
2019-01-19T18:56:24.613Z,0.00
2019-01-19T18:57:24.639Z,0.00
2019-01-19T18:58:24.608Z,0.00
2019-01-19T18:59:24.533Z,0.00
2019-01-19T19:00:24.523Z,0.00
2019-01-19T19:01:24.520Z,0.00
2019-01-19T19:02:24.621Z,0.00
2019-01-19T19:03:24.538Z,0.00
2019-01-19T19:04:24.487Z,0.00
2019-01-19T19:05:24.653Z,0.00
2019-01-19T19:06:24.467Z,0.00
2019-01-19T19:07:24.559Z,0.00
2019-01-19T19:08:24.543Z,0.00
2019-01-19T19:09:24.501Z,0.00
2019-01-19T19:10:24.461Z,0.00
2019-01-19T19:11:24.484Z,0.00
2019-01-19T19:12:24.447Z,0.00
2019-01-19T19:13:24.510Z,0.00
2019-01-19T19:14:24.478Z,0.00
2019-01-19T19:15:24.408Z,0.00
2019-01-19T19:16:24.363Z,0.00
2019-01-19T19:17:24.527Z,0.00
2019-01-19T19:18:24.343Z,0.00
2019-01-19T19:19:24.447Z,0.00
2019-01-19T19:20:24.323Z,0.00
2019-01-19T19:21:25.369Z,0.00
2019-01-19T19:22:24.422Z,0.00
2019-01-19T19:23:24.290Z,0.00
2019-01-19T19:24:24.278Z,0.00
2019-01-19T19:25:24.372Z,0.00
2019-01-19T19:26:24.255Z,0.00
2019-01-19T19:27:24.383Z,0.00
2019-01-19T19:28:24.242Z,0.00
2019-01-19T19:29:24.230Z,0.00
2019-01-19T19:30:24.314Z,0.00
2019-01-19T19:31:24.386Z,0.00
2019-01-19T19:32:24.315Z,0.00
2019-01-19T19:33:24.195Z,0.00
2019-01-19T19:34:24.242Z,0.00
2019-01-19T19:35:24.234Z,0.00
2019-01-19T19:36:24.221Z,0.00
2019-01-19T19:37:24.350Z,0.00
2019-01-19T19:38:24.154Z,0.00
2019-01-19T19:39:24.156Z,0.00
2019-01-19T19:40:24.134Z,0.00
2019-01-19T19:41:24.109Z,0.00
2019-01-19T19:42:24.278Z,0.00
2019-01-19T19:43:24.089Z,0.00
2019-01-19T19:44:24.300Z,0.00
2019-01-19T19:45:24.074Z,0.00
2019-01-19T19:46:24.068Z,0.00
2019-01-19T19:47:24.083Z,0.00
2019-01-19T19:48:24.115Z,0.00
2019-01-19T19:49:24.080Z,0.00
2019-01-19T19:50:24.225Z,0.00
2019-01-19T19:51:24.067Z,0.00
2019-01-19T19:52:27.857Z,0.00
2019-01-19T19:53:24.033Z,0.00
2019-01-19T19:54:24.130Z,0.00
2019-01-19T19:55:24.048Z,0.00
2019-01-19T19:56:23.953Z,0.00
2019-01-19T19:57:23.963Z,0.00
2019-01-19T19:58:23.944Z,0.00
2019-01-19T19:59:24.074Z,0.00
2019-01-19T20:00:23.918Z,0.00
2019-01-19T20:01:23.983Z,0.00
2019-01-19T20:02:23.896Z,0.00
2019-01-19T20:03:23.890Z,0.00
2019-01-19T20:04:24.029Z,0.00
2019-01-19T20:05:24.024Z,0.00
2019-01-19T20:06:23.855Z,0.00
2019-01-19T20:07:24.032Z,0.00
2019-01-19T20:08:23.868Z,0.00
2019-01-19T20:09:23.821Z,0.00
2019-01-19T20:10:23.873Z,0.00
2019-01-19T20:11:23.955Z,0.00
2019-01-19T20:12:23.806Z,0.00
2019-01-19T20:13:23.860Z,0.00
2019-01-19T20:14:23.767Z,0.00
2019-01-19T20:15:23.967Z,0.00
2019-01-19T20:16:23.753Z,0.00
2019-01-19T20:17:23.791Z,0.00
2019-01-19T20:18:23.731Z,0.00
2019-01-19T20:19:23.810Z,0.00
2019-01-19T20:20:23.795Z,0.00
2019-01-19T20:21:23.696Z,0.00
2019-01-19T20:22:23.700Z,0.00
2019-01-19T20:23:23.844Z,0.00
2019-01-19T20:24:23.679Z,0.00
2019-01-19T20:25:24.777Z,0.00
2019-01-19T20:26:23.663Z,0.00
2019-01-19T20:27:23.770Z,0.00
2019-01-19T20:28:23.692Z,0.00
2019-01-19T20:29:25.716Z,0.00
2019-01-19T20:30:23.642Z,0.00
2019-01-19T20:31:25.626Z,0.00
2019-01-19T20:32:23.582Z,0.00
2019-01-19T20:33:24.720Z,0.00
2019-01-19T20:34:23.703Z,0.00
2019-01-19T20:35:23.590Z,0.00
2019-01-19T20:36:23.614Z,0.00
2019-01-19T20:37:23.524Z,0.00
2019-01-19T20:38:23.656Z,0.00
2019-01-19T20:39:23.610Z,0.00
2019-01-19T20:40:24.560Z,0.00
2019-01-19T20:41:23.540Z,0.00
2019-01-19T20:42:23.491Z,0.00
2019-01-19T20:43:23.566Z,0.00
2019-01-19T20:44:23.642Z,0.00
2019-01-19T20:45:23.570Z,0.00
2019-01-19T20:46:23.448Z,0.00
2019-01-19T20:47:23.481Z,0.00
2019-01-19T20:48:23.442Z,0.00
2019-01-19T20:49:23.597Z,0.00
2019-01-19T20:50:23.433Z,0.00
2019-01-19T20:51:23.485Z,0.00
2019-01-19T20:52:23.613Z,0.00
2019-01-19T20:53:23.420Z,0.00
2019-01-19T20:54:23.372Z,0.00
2019-01-19T20:55:23.437Z,0.00
2019-01-19T20:56:23.349Z,0.00
2019-01-19T20:57:23.446Z,0.00
2019-01-19T20:58:23.327Z,0.00
2019-01-19T20:59:23.560Z,0.00
2019-01-19T21:00:23.361Z,0.00
2019-01-19T21:01:23.586Z,0.00
2019-01-19T21:02:23.286Z,0.00
2019-01-19T21:03:23.382Z,0.00
2019-01-19T21:04:23.268Z,0.00
2019-01-19T21:05:23.395Z,0.00
2019-01-19T21:06:23.291Z,0.00
2019-01-19T21:07:23.310Z,0.00
2019-01-19T21:08:23.380Z,0.00
2019-01-19T21:09:23.321Z,0.00
2019-01-19T21:10:23.209Z,0.00
2019-01-19T21:11:23.335Z,0.00
2019-01-19T21:12:23.198Z,0.00
2019-01-19T21:13:23.344Z,0.00
2019-01-19T21:14:23.506Z,0.00
2019-01-19T21:15:23.224Z,0.00
2019-01-19T21:16:23.204Z,0.00
2019-01-19T21:17:23.272Z,0.00
2019-01-19T21:18:23.121Z,0.00
2019-01-19T21:19:23.151Z,0.00
2019-01-19T21:20:23.360Z,0.00
2019-01-19T21:21:23.196Z,0.00
2019-01-19T21:22:23.097Z,0.00
2019-01-19T21:23:24.126Z,0.00
2019-01-19T21:24:23.283Z,0.00
2019-01-19T21:25:23.123Z,0.00
2019-01-19T21:26:23.035Z,0.00
2019-01-19T21:27:23.132Z,0.00
2019-01-19T21:28:23.142Z,0.00
2019-01-19T21:29:23.022Z,0.00
2019-01-19T21:30:23.119Z,0.00
2019-01-19T21:31:22.995Z,0.00
2019-01-19T21:32:23.067Z,0.00
2019-01-19T21:33:23.134Z,0.00
2019-01-19T21:34:22.957Z,0.00
2019-01-19T21:35:23.110Z,0.00
2019-01-19T21:36:23.089Z,0.00
2019-01-19T21:37:22.939Z,0.00
2019-01-19T21:38:23.213Z,0.00
2019-01-19T21:39:22.906Z,0.00
2019-01-19T21:40:22.971Z,0.00
2019-01-19T21:41:22.979Z,0.00
2019-01-19T21:42:23.041Z,0.00
2019-01-19T21:43:23.009Z,0.00
2019-01-19T21:44:22.986Z,0.00
2019-01-19T21:45:22.850Z,0.00
2019-01-19T21:46:22.838Z,0.00
2019-01-19T21:47:22.892Z,0.00
2019-01-19T21:48:22.966Z,0.00
2019-01-19T21:49:22.807Z,0.00
2019-01-19T21:50:22.880Z,0.00
2019-01-19T21:51:22.785Z,0.00
2019-01-19T21:52:22.913Z,0.00
2019-01-19T21:53:22.771Z,0.00
2019-01-19T21:54:22.901Z,0.00
2019-01-19T21:55:22.748Z,0.00
2019-01-19T21:56:22.816Z,0.00
2019-01-19T21:57:22.793Z,0.00
2019-01-19T21:58:22.728Z,0.00
2019-01-19T21:59:22.720Z,0.00
2019-01-19T22:00:23.043Z,0.00
2019-01-19T22:01:22.714Z,0.00
2019-01-19T22:02:22.756Z,0.00
2019-01-19T22:03:22.726Z,0.00
2019-01-19T22:04:22.662Z,0.00
2019-01-19T22:05:22.670Z,0.00
2019-01-19T22:06:22.984Z,0.00
2019-01-19T22:07:22.623Z,0.00
2019-01-19T22:08:24.743Z,0.00
2019-01-19T22:09:22.605Z,0.00
2019-01-19T22:10:22.595Z,0.00
2019-01-19T22:11:22.652Z,0.00
2019-01-19T22:12:22.720Z,0.00
2019-01-19T22:13:22.568Z,0.00
2019-01-19T22:14:23.963Z,0.00
2019-01-19T22:15:22.569Z,0.00
2019-01-19T22:16:22.617Z,0.00
2019-01-19T22:17:22.525Z,0.00
2019-01-19T22:18:22.655Z,0.00
2019-01-19T22:19:22.681Z,0.00
2019-01-19T22:20:22.619Z,0.00
2019-01-19T22:21:22.480Z,0.00
2019-01-19T22:22:22.468Z,0.00
2019-01-19T22:23:22.484Z,0.00
2019-01-19T22:24:22.607Z,0.00
2019-01-19T22:25:22.447Z,0.00
2019-01-19T22:26:22.719Z,0.00
2019-01-19T22:27:22.429Z,0.00
2019-01-19T22:28:22.481Z,0.00
2019-01-19T22:29:22.420Z,0.00
2019-01-19T22:30:22.743Z,0.00
2019-01-19T22:31:22.382Z,0.00
2019-01-19T22:32:22.543Z,0.00
2019-01-19T22:33:22.374Z,0.00
2019-01-19T22:34:22.406Z,0.00
2019-01-19T22:35:22.342Z,0.00
2019-01-19T22:36:22.611Z,0.00
2019-01-19T22:37:22.329Z,0.00
2019-01-19T22:38:22.482Z,0.00
2019-01-19T22:39:22.304Z,0.00
2019-01-19T22:40:22.287Z,0.00
2019-01-19T22:41:22.348Z,0.00
2019-01-19T22:42:22.623Z,0.00
2019-01-19T22:43:22.279Z,0.00
2019-01-19T22:44:22.421Z,0.00
2019-01-19T22:45:22.250Z,0.00
2019-01-19T22:46:22.239Z,0.00
2019-01-19T22:47:22.225Z,0.00
2019-01-19T22:48:22.356Z,0.00
2019-01-19T22:49:22.418Z,0.00
2019-01-19T22:50:22.296Z,0.00
2019-01-19T22:51:22.182Z,0.00
2019-01-19T22:52:22.245Z,0.00
2019-01-19T22:53:22.177Z,0.00
2019-01-19T22:54:22.317Z,0.00
2019-01-19T22:55:22.146Z,0.00
2019-01-19T22:56:22.506Z,0.00
2019-01-19T22:57:22.128Z,0.00
2019-01-19T22:58:22.185Z,0.00
2019-01-19T22:59:22.118Z,0.00
2019-01-19T23:00:23.243Z,0.00
2019-01-19T23:01:23.317Z,0.00
2019-01-19T23:02:22.233Z,0.00
2019-01-19T23:03:22.068Z,0.00
2019-01-19T23:04:22.050Z,0.00
2019-01-19T23:05:22.053Z,0.00
2019-01-19T23:06:22.271Z,0.00
2019-01-19T23:07:22.568Z,0.00
2019-01-19T23:08:23.087Z,0.00
2019-01-19T23:09:22.004Z,0.00
2019-01-19T23:10:21.997Z,0.00
2019-01-19T23:11:22.177Z,0.00
2019-01-19T23:12:22.130Z,0.00
2019-01-19T23:13:22.182Z,0.00
2019-01-19T23:14:22.118Z,0.00
2019-01-19T23:15:21.946Z,0.00
2019-01-19T23:16:21.938Z,0.00
2019-01-19T23:17:21.988Z,0.00
2019-01-19T23:18:22.039Z,0.00
2019-01-19T23:19:22.100Z,0.00
2019-01-19T23:20:22.046Z,0.00
2019-01-19T23:21:21.888Z,0.00
2019-01-19T23:22:21.941Z,0.00
2019-01-19T23:23:21.878Z,0.00
2019-01-19T23:24:21.972Z,0.00
2019-01-19T23:25:21.847Z,0.00
2019-01-19T23:26:21.980Z,0.00